Time;durP1;ratioP1;P1;durP2;ratioP2;P2;SDS_P1;SDS_P2;PMS_P1;PMS_P2;Temp;Humidity;BMP_temperature;BMP_pressure;BME280_temperature;BME280_humidity;BME280_pressure;Samples;Min_cycle;Max_cycle;Signal;HPM_P1;HPM_P2
2021/06/26 00:01:41;;;;;;;12.27;11.17;;;24.10;56.90;;;;;;5023156;28;20649;-47
2021/06/26 00:04:07;;;;;;;11.37;10.40;;;24.10;57.00;;;;;;5028869;28;20304;-51
2021/06/26 00:06:35;;;;;;;14.27;11.57;;;24.10;57.20;;;;;;5030756;28;20612;-51
2021/06/26 00:09:01;;;;;;;11.43;10.50;;;24.00;57.30;;;;;;5024153;28;20185;-49
2021/06/26 00:11:27;;;;;;;11.03;9.97;;;24.00;57.60;;;;;;5022925;28;20514;-52
2021/06/26 00:13:53;;;;;;;11.90;10.80;;;23.90;57.90;;;;;;5028028;28;20523;-46
2021/06/26 00:16:18;;;;;;;12.40;11.30;;;23.80;58.30;;;;;;5019841;28;20197;-46
2021/06/26 00:18:44;;;;;;;11.97;10.87;;;23.70;58.30;;;;;;5024114;28;20239;-48
2021/06/26 00:21:10;;;;;;;12.83;11.63;;;23.60;58.50;;;;;;5030400;28;20197;-51
2021/06/26 00:23:36;;;;;;;10.90;9.90;;;23.50;58.70;;;;;;5022062;28;20924;-46
2021/06/26 00:26:01;;;;;;;11.53;10.50;;;23.40;59.10;;;;;;5027109;28;20731;-48
2021/06/26 00:28:27;;;;;;;12.70;11.50;;;23.40;59.10;;;;;;5024203;28;20220;-51
2021/06/26 00:30:52;;;;;;;12.83;11.50;;;23.50;58.90;;;;;;5024309;28;20197;-51
2021/06/26 00:33:18;;;;;;;12.80;11.80;;;23.60;59.30;;;;;;5017289;28;20208;-51
2021/06/26 00:35:44;;;;;;;12.63;11.47;;;23.60;58.60;;;;;;5028787;28;20197;-47
2021/06/26 00:38:09;;;;;;;12.00;10.97;;;23.70;58.60;;;;;;5027526;28;20196;-48
2021/06/26 00:40:35;;;;;;;12.30;11.20;;;23.70;58.40;;;;;;5024375;28;20237;-50
2021/06/26 00:43:01;;;;;;;12.87;11.47;;;23.80;58.40;;;;;;5027940;28;20185;-51
2021/06/26 00:45:26;;;;;;;12.23;11.13;;;23.70;58.40;;;;;;5023040;28;22034;-47
2021/06/26 00:47:52;;;;;;;11.07;10.17;;;23.70;58.40;;;;;;5027246;28;20664;-49
2021/06/26 00:50:20;;;;;;;11.73;10.33;;;23.70;58.50;;;;;;5025374;28;20229;-52
2021/06/26 00:52:46;;;;;;;12.00;10.90;;;23.80;58.60;;;;;;5027218;28;20202;-46
2021/06/26 00:55:13;;;;;;;12.63;11.33;;;23.70;58.60;;;;;;5028271;28;20456;-46
2021/06/26 00:57:43;;;;;;;13.07;11.60;;;23.70;58.70;;;;;;5024725;28;20811;-47
2021/06/26 01:00:09;;;;;;;13.63;12.47;;;23.60;59.30;;;;;;5020034;28;20499;-48
2021/06/26 01:02:35;;;;;;;11.93;10.90;;;23.40;59.70;;;;;;5026199;28;20963;-49
2021/06/26 01:05:00;;;;;;;12.70;11.40;;;23.20;60.10;;;;;;5029350;28;20487;-52
2021/06/26 01:07:26;;;;;;;12.97;11.80;;;23.20;60.60;;;;;;5018852;28;20594;-51
2021/06/26 01:09:51;;;;;;;12.90;11.60;;;23.20;60.70;;;;;;5020040;28;20225;-47
2021/06/26 01:12:17;;;;;;;18.20;12.27;;;23.10;61.00;;;;;;5018554;28;20189;-48
2021/06/26 01:14:43;;;;;;;12.17;11.07;;;23.00;61.20;;;;;;5023162;28;20255;-50
2021/06/26 01:17:09;;;;;;;14.27;12.97;;;23.10;61.30;;;;;;5023611;28;20403;-51
2021/06/26 01:19:36;;;;;;;12.87;11.50;;;23.10;61.10;;;;;;5020363;28;20488;-48
2021/06/26 01:22:08;;;;;;;12.77;11.57;;;23.00;61.50;;;;;;5025465;28;20276;-51
2021/06/26 01:24:35;;;;;;;12.90;11.63;;;23.00;61.60;;;;;;5016774;28;20441;-52
2021/06/26 01:27:03;;;;;;;13.77;12.37;;;23.00;61.70;;;;;;5021678;28;20440;-48
2021/06/26 01:29:29;;;;;;;13.77;11.73;;;23.00;61.30;;;;;;5021008;28;20455;-51
2021/06/26 01:31:56;;;;;;;14.00;12.30;;;23.00;61.30;;;;;;5018089;28;20441;-48
2021/06/26 01:34:22;;;;;;;12.90;11.70;;;23.00;61.70;;;;;;5017957;28;20440;-50
2021/06/26 01:36:48;;;;;;;13.60;12.50;;;23.00;61.70;;;;;;5024861;28;20471;-52
2021/06/26 01:39:14;;;;;;;13.37;12.07;;;22.90;61.80;;;;;;5022000;28;20229;-46
2021/06/26 01:41:39;;;;;;;13.00;11.70;;;22.90;62.10;;;;;;5028880;28;20683;-52
2021/06/26 01:44:05;;;;;;;14.30;12.80;;;22.90;62.10;;;;;;5023172;28;20200;-52
2021/06/26 01:46:32;;;;;;;22.43;13.40;;;22.80;62.40;;;;;;5024970;28;20259;-51
2021/06/26 01:49:12;;;;;;;16.07;13.17;;;22.90;62.40;;;;;;5019702;28;20447;-52
2021/06/26 01:51:39;;;;;;;14.53;13.20;;;22.70;62.90;;;;;;5018094;28;20464;-50
2021/06/26 01:54:09;;;;;;;14.90;12.43;;;22.80;62.80;;;;;;5028138;28;20446;-51
2021/06/26 01:56:36;;;;;;;14.37;13.07;;;22.90;62.40;;;;;;5024877;28;20452;-52
2021/06/26 01:59:03;;;;;;;16.27;12.80;;;22.90;62.10;;;;;;5025660;28;20491;-48
2021/06/26 02:01:29;;;;;;;13.10;11.83;;;22.90;62.00;;;;;;5026128;28;20447;-51
2021/06/26 02:03:54;;;;;;;14.43;13.00;;;22.60;62.50;;;;;;5023824;28;20435;-48
2021/06/26 02:06:20;;;;;;;14.30;13.00;;;22.60;63.10;;;;;;5021208;28;20274;-48
2021/06/26 02:08:46;;;;;;;14.23;12.93;;;22.50;63.30;;;;;;5025900;28;20208;-48
2021/06/26 02:11:12;;;;;;;13.60;12.37;;;22.20;64.20;;;;;;5028368;28;20197;-52
2021/06/26 02:13:37;;;;;;;14.30;13.00;;;22.30;64.30;;;;;;5028158;28;20665;-50
2021/06/26 02:16:03;;;;;;;14.27;12.87;;;22.40;63.70;;;;;;5026744;28;20196;-49
2021/06/26 02:18:29;;;;;;;13.57;12.40;;;22.30;64.10;;;;;;5020805;28;20253;-51
2021/06/26 02:20:54;;;;;;;16.23;14.10;;;22.50;63.70;;;;;;5028298;28;20198;-50
2021/06/26 02:23:20;;;;;;;13.70;12.50;;;22.50;63.20;;;;;;5023644;28;20185;-52
2021/06/26 02:25:45;;;;;;;13.10;11.80;;;22.70;63.10;;;;;;5027793;28;20660;-52
2021/06/26 02:28:11;;;;;;;14.27;12.90;;;22.80;62.80;;;;;;5027273;28;20213;-52
2021/06/26 02:30:37;;;;;;;12.83;11.70;;;22.80;62.20;;;;;;5025607;28;20206;-52
2021/06/26 02:33:03;;;;;;;13.50;12.30;;;22.90;61.90;;;;;;5026502;28;20198;-52
2021/06/26 02:35:29;;;;;;;13.40;12.10;;;22.90;61.90;;;;;;5027921;28;20201;-49
2021/06/26 02:37:54;;;;;;;14.03;12.83;;;22.90;62.00;;;;;;5028214;28;20470;-48
2021/06/26 02:40:20;;;;;;;14.50;13.00;;;22.90;61.70;;;;;;5029842;28;20301;-48
2021/06/26 02:42:46;;;;;;;13.90;12.60;;;22.90;61.40;;;;;;5019611;28;20244;-48
2021/06/26 02:45:12;;;;;;;13.00;11.70;;;22.70;61.80;;;;;;5029441;28;20220;-47
2021/06/26 02:47:38;;;;;;;17.93;13.23;;;22.70;62.80;;;;;;5027764;28;20219;-47
2021/06/26 02:50:06;;;;;;;14.37;12.97;;;22.80;62.50;;;;;;5023908;28;21518;-47
2021/06/26 02:52:31;;;;;;;14.83;13.40;;;22.90;62.00;;;;;;5032848;28;20452;-47
2021/06/26 02:54:58;;;;;;;14.10;12.80;;;23.00;61.80;;;;;;5029808;28;20440;-46
2021/06/26 02:57:24;;;;;;;12.80;11.70;;;22.90;61.60;;;;;;5028284;28;20194;-51
2021/06/26 02:59:50;;;;;;;16.00;12.13;;;22.80;61.80;;;;;;5025617;28;20491;-46
2021/06/26 03:02:16;;;;;;;14.50;13.07;;;22.80;61.90;;;;;;5031185;28;20212;-46
2021/06/26 03:04:42;;;;;;;14.37;12.90;;;22.90;61.90;;;;;;5028623;28;20225;-47
2021/06/26 03:07:08;;;;;;;14.43;13.03;;;22.80;61.90;;;;;;5029672;28;20220;-49
2021/06/26 03:09:34;;;;;;;14.37;13.07;;;22.80;62.00;;;;;;5025878;28;20824;-47
2021/06/26 03:11:59;;;;;;;13.83;12.50;;;22.70;62.40;;;;;;5023692;28;20436;-46
2021/06/26 03:14:25;;;;;;;13.90;12.70;;;22.70;62.40;;;;;;5029612;28;20208;-47
2021/06/26 03:16:51;;;;;;;12.63;11.30;;;22.80;62.50;;;;;;5023098;28;20288;-48
2021/06/26 03:19:16;;;;;;;13.60;12.20;;;22.70;62.20;;;;;;5028089;28;20225;-47
2021/06/26 03:21:42;;;;;;;14.23;11.93;;;22.70;62.50;;;;;;5027419;28;20684;-47
2021/06/26 03:24:08;;;;;;;13.50;12.20;;;22.80;62.40;;;;;;5030001;28;20201;-49
2021/06/26 03:26:34;;;;;;;16.93;13.17;;;22.80;62.20;;;;;;5021307;28;20360;-46
2021/06/26 03:29:01;;;;;;;14.20;12.80;;;22.60;62.80;;;;;;5025531;28;20695;-46
2021/06/26 03:31:26;;;;;;;12.83;11.63;;;22.70;62.90;;;;;;5027286;28;20963;-49
2021/06/26 03:33:52;;;;;;;13.23;11.90;;;22.80;62.80;;;;;;5023265;28;20428;-46
2021/06/26 03:36:18;;;;;;;15.17;12.67;;;22.80;62.30;;;;;;5022593;28;20209;-50
2021/06/26 03:38:43;;;;;;;15.47;13.87;;;22.60;62.30;;;;;;5028498;28;20593;-47
2021/06/26 03:41:10;;;;;;;14.57;13.07;;;22.50;62.70;;;;;;5024993;28;20237;-47
2021/06/26 03:43:35;;;;;;;13.67;12.37;;;22.40;63.30;;;;;;5027318;28;20185;-46
2021/06/26 03:46:01;;;;;;;13.70;12.40;;;22.50;63.10;;;;;;5026283;28;20803;-46
2021/06/26 03:48:26;;;;;;;13.30;12.10;;;22.60;63.20;;;;;;5026489;28;20220;-45
2021/06/26 03:50:53;;;;;;;13.80;12.40;;;22.50;62.80;;;;;;5027939;28;20286;-48
2021/06/26 03:53:18;;;;;;;14.73;13.13;;;22.60;63.00;;;;;;5028493;28;21703;-48
2021/06/26 03:55:51;;;;;;;14.80;13.20;;;22.60;62.80;;;;;;5027181;28;20444;-47
2021/06/26 03:58:24;;;;;;;13.70;12.50;;;22.40;62.90;;;;;;5024875;28;20193;-49
2021/06/26 04:00:50;;;;;;;13.50;12.20;;;22.30;63.20;;;;;;5017304;28;20531;-47
2021/06/26 04:03:17;;;;;;;16.23;10.63;;;22.30;63.50;;;;;;5021243;28;20523;-47
2021/06/26 04:05:43;;;;;;;13.27;10.00;;;22.40;64.10;;;;;;5028251;28;20444;-48
2021/06/26 04:08:10;;;;;;;13.53;11.00;;;22.60;63.70;;;;;;5023409;28;20855;-48
2021/06/26 04:10:36;;;;;;;10.30;9.50;;;22.70;63.10;;;;;;5022881;28;20885;-46
2021/06/26 04:13:01;;;;;;;9.90;9.00;;;22.90;62.70;;;;;;5023679;28;20523;-47
2021/06/26 04:15:27;;;;;;;13.57;10.83;;;22.90;62.00;;;;;;5028558;28;20559;-52
2021/06/26 04:17:53;;;;;;;11.80;10.37;;;23.10;61.80;;;;;;5021598;28;20197;-47
2021/06/26 04:20:18;;;;;;;10.17;9.37;;;23.20;61.30;;;;;;5025122;28;20236;-47
2021/06/26 04:22:45;;;;;;;11.27;10.17;;;23.30;60.90;;;;;;5023136;28;20190;-51
2021/06/26 04:25:13;;;;;;;10.60;9.70;;;23.40;60.80;;;;;;5027686;28;20197;-47
2021/06/26 04:27:38;;;;;;;11.93;10.77;;;23.40;60.40;;;;;;5021463;28;20766;-46
2021/06/26 04:30:05;;;;;;;11.43;10.43;;;23.40;60.20;;;;;;5021507;28;20447;-48
2021/06/26 04:32:30;;;;;;;11.40;10.30;;;23.50;60.30;;;;;;5020761;28;20189;-45
2021/06/26 04:34:56;;;;;;;10.97;9.90;;;23.50;60.00;;;;;;5019726;28;20459;-48
2021/06/26 04:37:22;;;;;;;16.60;12.17;;;23.60;59.80;;;;;;5022515;28;20675;-46
2021/06/26 04:39:47;;;;;;;11.50;10.50;;;23.60;59.90;;;;;;5029745;28;20237;-48
2021/06/26 04:42:13;;;;;;;13.80;12.50;;;23.60;60.40;;;;;;5029689;28;20269;-46
2021/06/26 04:44:39;;;;;;;11.27;10.10;;;23.50;59.80;;;;;;5022942;28;20185;-47
2021/06/26 04:47:05;;;;;;;11.23;10.20;;;23.50;60.00;;;;;;5027309;28;20229;-47
2021/06/26 04:49:31;;;;;;;10.37;9.37;;;23.50;60.00;;;;;;5015294;28;20190;-46
2021/06/26 04:51:57;;;;;;;11.27;10.27;;;23.40;60.00;;;;;;5026259;28;20237;-46
2021/06/26 04:54:22;;;;;;;11.90;10.80;;;23.50;60.10;;;;;;5027681;28;20856;-46
2021/06/26 04:56:48;;;;;;;10.60;9.70;;;23.50;59.80;;;;;;5025447;28;20550;-46
2021/06/26 04:59:13;;;;;;;10.63;9.73;;;23.50;59.70;;;;;;5024639;28;20232;-48
2021/06/26 05:01:39;;;;;;;11.47;10.37;;;23.60;59.70;;;;;;5026836;28;20197;-46
2021/06/26 05:04:04;;;;;;;12.20;11.07;;;23.70;59.50;;;;;;5026586;28;20189;-46
2021/06/26 05:06:30;;;;;;;14.43;10.27;;;23.70;59.30;;;;;;5023921;28;20744;-47
2021/06/26 05:08:56;;;;;;;13.63;10.03;;;23.70;59.40;;;;;;5028869;28;20683;-46
2021/06/26 05:11:21;;;;;;;12.73;11.47;;;23.70;59.30;;;;;;5024059;28;20281;-46
2021/06/26 05:13:47;;;;;;;16.60;11.20;;;23.70;58.90;;;;;;5029347;28;20543;-47
2021/06/26 05:16:13;;;;;;;14.50;11.07;;;23.70;59.20;;;;;;5023769;28;20268;-47
2021/06/26 05:18:39;;;;;;;13.13;10.67;;;23.70;59.30;;;;;;5013799;28;20201;-48
2021/06/26 05:21:05;;;;;;;12.60;11.50;;;23.80;59.20;;;;;;5016136;28;20463;-49
2021/06/26 05:23:31;;;;;;;12.47;11.30;;;23.90;58.90;;;;;;5026398;28;20688;-48
2021/06/26 05:25:57;;;;;;;15.60;14.20;;;23.90;58.60;;;;;;5025548;28;20448;-45
2021/06/26 05:28:22;;;;;;;15.47;13.87;;;23.80;58.60;;;;;;5019510;28;20208;-48
2021/06/26 05:30:48;;;;;;;15.17;13.70;;;23.80;58.90;;;;;;5023149;28;20276;-51
2021/06/26 05:33:14;;;;;;;14.90;13.60;;;23.80;59.20;;;;;;5008740;28;20190;-51
2021/06/26 05:35:40;;;;;;;15.90;14.40;;;23.90;59.10;;;;;;5022879;28;20204;-47
2021/06/26 05:38:05;;;;;;;16.23;14.73;;;23.90;58.80;;;;;;5025264;28;20197;-46
2021/06/26 05:40:31;;;;;;;11.40;10.20;;;23.90;59.00;;;;;;5030959;28;20491;-49
2021/06/26 05:42:57;;;;;;;13.87;12.47;;;23.90;59.10;;;;;;5030616;28;20683;-47
2021/06/26 05:45:22;;;;;;;13.50;11.40;;;24.00;58.90;;;;;;5031554;28;20288;-48
2021/06/26 05:47:48;;;;;;;13.07;11.90;;;24.00;58.70;;;;;;5030410;28;20201;-46
2021/06/26 05:50:13;;;;;;;14.80;13.30;;;23.60;59.70;;;;;;5033842;28;20554;-47
2021/06/26 05:53:05;;;;;;;12.20;11.00;;;23.60;60.00;;;;;;5032881;28;20189;-47
2021/06/26 05:55:31;;;;;;;10.03;9.17;;;23.90;59.70;;;;;;5028409;28;20209;-47
2021/06/26 05:57:57;;;;;;;10.70;9.80;;;24.10;59.20;;;;;;5021643;28;20852;-49
2021/06/26 06:00:23;;;;;;;13.80;12.60;;;24.30;58.70;;;;;;5031848;28;20225;-47
2021/06/26 06:02:50;;;;;;;11.97;10.80;;;24.30;58.10;;;;;;5033395;28;20193;-46
2021/06/26 06:05:16;;;;;;;13.27;11.83;;;24.50;57.90;;;;;;5031765;28;20432;-47
2021/06/26 06:07:43;;;;;;;13.63;12.50;;;24.60;57.90;;;;;;5023054;28;20440;-47
2021/06/26 06:10:11;;;;;;;11.77;10.77;;;24.70;57.70;;;;;;5032939;28;20790;-46
2021/06/26 06:12:38;;;;;;;13.53;12.23;;;24.80;57.40;;;;;;5032470;28;20469;-47
2021/06/26 06:15:06;;;;;;;11.60;10.53;;;25.00;57.20;;;;;;5031730;28;20474;-46
2021/06/26 06:17:32;;;;;;;10.90;9.90;;;25.10;57.10;;;;;;5033104;28;20436;-46
2021/06/26 06:19:58;;;;;;;10.40;9.30;;;25.20;56.90;;;;;;5031145;28;20486;-48
2021/06/26 06:22:26;;;;;;;9.70;9.00;;;25.20;56.70;;;;;;5031745;28;20189;-46
2021/06/26 06:24:51;;;;;;;10.93;9.87;;;25.30;56.50;;;;;;5032001;28;20554;-49
2021/06/26 06:27:17;;;;;;;11.57;9.30;;;25.40;56.40;;;;;;5029822;28;20428;-51
2021/06/26 06:29:43;;;;;;;10.77;9.60;;;25.50;56.30;;;;;;5020974;28;20263;-48
2021/06/26 06:32:09;;;;;;;9.57;8.60;;;25.50;56.10;;;;;;5024754;28;20523;-48
2021/06/26 06:34:35;;;;;;;14.43;13.13;;;25.50;55.90;;;;;;5033164;28;20906;-46
2021/06/26 06:37:00;;;;;;;14.00;12.80;;;25.30;56.10;;;;;;5030977;28;20250;-49
2021/06/26 06:39:26;;;;;;;11.73;10.73;;;25.30;56.60;;;;;;5030187;28;20308;-51
2021/06/26 06:41:52;;;;;;;11.77;10.77;;;25.40;56.60;;;;;;5032724;28;20202;-46
2021/06/26 06:44:18;;;;;;;10.93;9.20;;;25.40;56.80;;;;;;5025371;28;20201;-48
2021/06/26 06:46:44;;;;;;;12.60;11.37;;;25.50;56.20;;;;;;5029113;28;20435;-52
2021/06/26 06:49:09;;;;;;;10.10;9.30;;;25.60;56.30;;;;;;5033538;28;20657;-48
2021/06/26 06:51:36;;;;;;;15.60;14.20;;;25.80;56.40;;;;;;5033900;28;20209;-45
2021/06/26 06:54:02;;;;;;;13.10;12.00;;;25.80;56.40;;;;;;5030691;28;20200;-46
2021/06/26 06:56:28;;;;;;;11.97;10.93;;;25.90;56.50;;;;;;5012072;28;20524;-50
2021/06/26 06:58:53;;;;;;;11.47;10.57;;;26.00;55.90;;;;;;5022343;28;20549;-48
2021/06/26 07:01:20;;;;;;;12.37;11.27;;;26.10;55.40;;;;;;5013537;28;20194;-45
2021/06/26 07:03:45;;;;;;;12.57;11.30;;;26.20;55.60;;;;;;5020242;28;20571;-49
2021/06/26 07:06:11;;;;;;;13.60;12.50;;;26.20;56.10;;;;;;5033263;28;20424;-53
2021/06/26 07:08:37;;;;;;;14.63;12.57;;;26.20;56.40;;;;;;5033501;28;20547;-45
2021/06/26 07:11:02;;;;;;;11.43;10.43;;;26.30;56.00;;;;;;5033024;28;20195;-47
2021/06/26 07:13:28;;;;;;;11.93;10.03;;;26.30;55.10;;;;;;5033363;28;20193;-47
2021/06/26 07:15:53;;;;;;;12.47;11.27;;;26.30;54.80;;;;;;5031842;28;20189;-50
2021/06/26 07:18:19;;;;;;;13.20;12.00;;;26.40;55.20;;;;;;5033119;28;20375;-50
2021/06/26 07:20:44;;;;;;;13.27;12.07;;;26.40;55.20;;;;;;5033077;28;20573;-45
2021/06/26 07:23:10;;;;;;;13.07;11.70;;;26.40;55.80;;;;;;5031757;28;20288;-45
2021/06/26 07:25:36;;;;;;;13.13;11.93;;;26.40;55.60;;;;;;5032648;28;20248;-45
2021/06/26 07:28:01;;;;;;;15.50;13.50;;;26.40;55.00;;;;;;5033040;28;20283;-51
2021/06/26 07:30:27;;;;;;;14.47;13.27;;;26.40;55.30;;;;;;5026705;28;20607;-45
2021/06/26 07:32:53;;;;;;;11.63;10.67;;;26.40;55.30;;;;;;5031386;28;20263;-47
2021/06/26 07:35:18;;;;;;;14.63;12.83;;;26.50;54.70;;;;;;5027322;28;20558;-46
2021/06/26 07:37:44;;;;;;;12.30;11.17;;;26.70;54.20;;;;;;5027546;28;20198;-47
2021/06/26 07:40:11;;;;;;;12.07;11.00;;;26.70;54.90;;;;;;5032195;28;20320;-48
2021/06/26 07:42:37;;;;;;;12.60;11.60;;;26.70;55.60;;;;;;5018720;28;20205;-45
2021/06/26 07:45:04;;;;;;;12.87;11.77;;;26.80;54.70;;;;;;5023380;28;20427;-49
2021/06/26 07:47:30;;;;;;;12.60;11.50;;;26.90;54.00;;;;;;5029538;28;20789;-54
2021/06/26 07:49:55;;;;;;;12.43;11.50;;;27.00;54.70;;;;;;5030392;28;20535;-45
2021/06/26 07:52:21;;;;;;;11.07;10.17;;;27.10;54.50;;;;;;5032798;28;20582;-44
2021/06/26 07:54:46;;;;;;;12.20;11.30;;;27.20;53.90;;;;;;5032521;28;20208;-50
2021/06/26 07:57:12;;;;;;;10.83;9.67;;;27.30;52.80;;;;;;5017205;28;20233;-47
2021/06/26 07:59:37;;;;;;;9.70;8.90;;;27.50;51.40;;;;;;5021066;28;20248;-49
2021/06/26 08:02:03;;;;;;;7.93;7.33;;;27.70;50.60;;;;;;5012585;28;20277;-45
2021/06/26 08:04:29;;;;;;;9.37;8.67;;;27.90;50.20;;;;;;5022075;28;20278;-47
2021/06/26 08:06:54;;;;;;;10.93;9.93;;;28.00;50.10;;;;;;5015377;28;20193;-48
2021/06/26 08:09:20;;;;;;;10.53;9.77;;;28.10;50.00;;;;;;5012082;28;20217;-46
2021/06/26 08:11:46;;;;;;;11.87;10.83;;;28.20;50.00;;;;;;5013122;28;20277;-50
2021/06/26 08:14:11;;;;;;;11.70;10.70;;;28.20;49.60;;;;;;5031224;28;20675;-48
2021/06/26 08:16:37;;;;;;;9.50;8.70;;;28.20;49.70;;;;;;5031035;28;20207;-48
2021/06/26 08:19:02;;;;;;;10.17;9.27;;;28.20;50.20;;;;;;5032097;28;20232;-46
2021/06/26 08:21:30;;;;;;;9.67;8.93;;;28.20;51.20;;;;;;5031703;28;20201;-49
2021/06/26 08:23:55;;;;;;;9.03;8.30;;;28.30;51.00;;;;;;5022345;28;20197;-48
2021/06/26 08:26:21;;;;;;;9.43;8.73;;;28.50;49.70;;;;;;5012038;28;20433;-45
2021/06/26 08:28:46;;;;;;;9.97;8.97;;;28.70;48.60;;;;;;5012232;28;20620;-51
2021/06/26 08:31:12;;;;;;;12.83;8.60;;;28.80;49.00;;;;;;5011766;28;20205;-49
2021/06/26 08:33:38;;;;;;;9.40;8.50;;;28.90;47.80;;;;;;5018720;28;20236;-49
2021/06/26 08:36:04;;;;;;;9.03;8.27;;;29.00;47.50;;;;;;5031636;28;20197;-49
2021/06/26 08:38:29;;;;;;;9.33;8.53;;;29.10;47.50;;;;;;5031803;28;20192;-50
2021/06/26 08:40:55;;;;;;;8.90;8.23;;;29.20;47.10;;;;;;5031215;28;20251;-50
2021/06/26 08:43:22;;;;;;;9.53;8.73;;;29.20;47.60;;;;;;5030240;28;20660;-49
2021/06/26 08:45:48;;;;;;;9.47;8.50;;;29.30;46.90;;;;;;5016910;28;20437;-49
2021/06/26 08:48:14;;;;;;;9.40;8.50;;;29.40;45.60;;;;;;5011978;28;20431;-50
2021/06/26 08:50:39;;;;;;;9.17;8.37;;;29.50;44.90;;;;;;5012492;28;20208;-51
2021/06/26 08:53:06;;;;;;;10.67;9.47;;;29.50;45.00;;;;;;5024082;28;20283;-49
2021/06/26 08:55:32;;;;;;;8.97;8.10;;;29.50;45.10;;;;;;5023488;28;20197;-51
2021/06/26 08:58:02;;;;;;;8.67;8.03;;;29.40;44.60;;;;;;5016971;28;21052;-51
2021/06/26 09:00:27;;;;;;;9.70;8.90;;;29.60;45.70;;;;;;5016343;28;20886;-51
2021/06/26 09:03:14;;;;;;;9.40;8.70;;;29.80;46.60;;;;;;5012012;28;20440;-51
2021/06/26 09:05:43;;;;;;;9.77;8.97;;;30.00;44.90;;;;;;5015039;28;20201;-51
2021/06/26 09:08:16;;;;;;;8.07;7.47;;;30.10;44.20;;;;;;5011412;28;20432;-47
2021/06/26 09:10:44;;;;;;;9.10;8.20;;;30.20;44.20;;;;;;5008750;28;20437;-51
2021/06/26 09:13:20;;;;;;;8.33;7.53;;;30.30;44.10;;;;;;5011699;28;20432;-51
2021/06/26 09:15:46;;;;;;;8.80;8.20;;;30.30;43.80;;;;;;5015831;28;20431;-51
2021/06/26 09:18:20;;;;;;;8.50;7.90;;;30.30;44.00;;;;;;5017177;28;20456;-50
2021/06/26 09:20:51;;;;;;;9.40;8.60;;;30.30;44.30;;;;;;5010942;28;20197;-50
2021/06/26 09:23:21;;;;;;;9.07;8.27;;;30.30;43.50;;;;;;5011638;28;20919;-50
2021/06/26 09:25:47;;;;;;;8.60;8.00;;;30.30;43.10;;;;;;5018340;28;20440;-51
2021/06/26 09:28:26;;;;;;;7.67;7.17;;;30.30;43.30;;;;;;5027213;28;20432;-49
2021/06/26 09:30:54;;;;;;;7.67;7.07;;;30.30;43.70;;;;;;5024330;28;20420;-51
2021/06/26 09:33:24;;;;;;;9.07;8.37;;;30.30;44.20;;;;;;5023145;28;20437;-51
2021/06/26 09:36:09;;;;;;;8.30;7.70;;;30.30;44.10;;;;;;5016997;28;20497;-51
2021/06/26 09:38:53;;;;;;;8.23;7.57;;;30.30;44.10;;;;;;5024494;28;20973;-51
2021/06/26 09:41:18;;;;;;;7.87;7.20;;;30.30;43.60;;;;;;5028122;28;20475;-47
2021/06/26 09:43:44;;;;;;;7.47;6.77;;;30.40;43.10;;;;;;5022450;28;20428;-45
2021/06/26 09:46:12;;;;;;;8.67;7.97;;;30.50;43.20;;;;;;5022841;28;20232;-49
2021/06/26 09:48:47;;;;;;;8.00;7.30;;;30.60;43.30;;;;;;5028471;28;20671;-50
2021/06/26 09:51:28;;;;;;;7.50;6.80;;;30.70;42.80;;;;;;5027401;28;20436;-50
2021/06/26 09:54:05;;;;;;;7.20;6.63;;;30.70;41.90;;;;;;5015381;28;20455;-46
2021/06/26 09:56:45;;;;;;;7.50;6.90;;;30.90;42.50;;;;;;5027474;28;20436;-46
2021/06/26 09:59:13;;;;;;;8.00;7.40;;;30.90;42.10;;;;;;5022302;28;20546;-51
2021/06/26 10:01:44;;;;;;;7.50;7.00;;;31.00;42.00;;;;;;5030072;28;20428;-49
2021/06/26 10:04:16;;;;;;;7.93;7.27;;;31.10;41.50;;;;;;5025893;28;20491;-49
2021/06/26 10:06:44;;;;;;;7.60;7.00;;;31.10;40.40;;;;;;5029361;28;20452;-46
2021/06/26 10:09:10;;;;;;;9.87;8.93;;;31.20;41.50;;;;;;5025686;28;20478;-47
2021/06/26 10:11:39;;;;;;;9.63;8.73;;;31.40;41.70;;;;;;5029811;28;20435;-48
2021/06/26 10:14:07;;;;;;;9.17;8.37;;;31.60;41.90;;;;;;5030269;28;20424;-49
2021/06/26 10:16:34;;;;;;;9.77;9.03;;;31.70;40.80;;;;;;5022043;28;20428;-51
2021/06/26 10:19:02;;;;;;;9.13;8.40;;;31.80;40.80;;;;;;5028014;28;20832;-49
2021/06/26 10:21:29;;;;;;;10.20;9.40;;;31.90;40.60;;;;;;5029758;28;20547;-47
2021/06/26 10:23:57;;;;;;;9.50;8.60;;;31.90;41.10;;;;;;5020416;28;20531;-46
2021/06/26 10:26:27;;;;;;;8.97;8.27;;;31.90;40.60;;;;;;5020559;28;20507;-50
2021/06/26 10:29:01;;;;;;;7.20;6.60;;;31.90;41.20;;;;;;5029166;28;20440;-49
2021/06/26 10:31:33;;;;;;;8.93;8.20;;;31.90;39.80;;;;;;5029587;28;20440;-47
2021/06/26 10:34:15;;;;;;;7.80;7.20;;;31.90;40.20;;;;;;5032574;28;20440;-50
2021/06/26 10:36:45;;;;;;;7.80;7.30;;;31.90;40.60;;;;;;5032773;28;20451;-50
2021/06/26 10:39:25;;;;;;;7.80;7.10;;;31.90;41.10;;;;;;5024957;28;20485;-48
2021/06/26 10:42:08;;;;;;;7.47;6.87;;;32.10;40.80;;;;;;5033562;28;20448;-47
2021/06/26 10:44:52;;;;;;;7.30;6.70;;;32.20;40.10;;;;;;5032804;28;20947;-51
2021/06/26 10:47:19;;;;;;;9.60;7.97;;;32.40;39.40;;;;;;5030913;28;20447;-49
2021/06/26 10:49:45;;;;;;;7.63;6.90;;;32.30;38.50;;;;;;5028715;28;20438;-52
2021/06/26 10:52:15;;;;;;;8.67;7.97;;;32.40;40.00;;;;;;5025311;28;20447;-46
2021/06/26 10:54:51;;;;;;;7.60;7.10;;;32.40;40.60;;;;;;5026007;28;20208;-49
2021/06/26 10:57:17;;;;;;;8.67;7.90;;;32.40;40.10;;;;;;5030487;28;20469;-51
2021/06/26 11:00:00;;;;;;;7.77;7.13;;;32.40;40.10;;;;;;5031069;28;20584;-52
2021/06/26 11:02:39;;;;;;;6.83;6.33;;;32.40;40.60;;;;;;5030105;28;20232;-51
2021/06/26 11:05:06;;;;;;;7.33;6.63;;;32.60;40.60;;;;;;5028772;28;20774;-49
2021/06/26 11:07:33;;;;;;;8.03;7.43;;;32.60;39.70;;;;;;5032473;28;20788;-48
2021/06/26 11:10:12;;;;;;;6.60;6.20;;;32.70;39.40;;;;;;5026843;28;20443;-51
2021/06/26 11:12:40;;;;;;;6.43;6.03;;;32.60;38.20;;;;;;5029768;28;20497;-52
2021/06/26 11:15:06;;;;;;;7.07;6.40;;;32.60;38.10;;;;;;5030995;28;20444;-52
2021/06/26 11:17:37;;;;;;;7.07;6.57;;;32.70;38.00;;;;;;5013666;28;20520;-50
2021/06/26 11:20:06;;;;;;;6.50;6.10;;;32.80;38.30;;;;;;5029626;28;20484;-52
2021/06/26 11:22:32;;;;;;;6.63;6.20;;;32.80;38.60;;;;;;5032972;28;20447;-52
2021/06/26 11:24:57;;;;;;;7.47;6.80;;;32.80;38.60;;;;;;5032840;28;20876;-52
2021/06/26 11:27:23;;;;;;;7.33;6.83;;;32.80;38.90;;;;;;5031291;28;20193;-52
2021/06/26 11:29:50;;;;;;;6.53;5.93;;;32.80;39.00;;;;;;5029826;28;20194;-47
2021/06/26 11:32:23;;;;;;;6.53;6.13;;;32.80;39.80;;;;;;5030204;28;20190;-52
2021/06/26 11:34:52;;;;;;;7.07;6.57;;;32.90;38.90;;;;;;5028822;28;20447;-52
2021/06/26 11:37:18;;;;;;;6.20;5.73;;;33.00;38.00;;;;;;5032919;28;20891;-51
2021/06/26 11:39:43;;;;;;;6.30;5.90;;;33.10;37.90;;;;;;5028960;28;20627;-51
2021/06/26 11:42:19;;;;;;;6.90;6.30;;;33.10;37.30;;;;;;5030452;28;20193;-51
2021/06/26 11:44:46;;;;;;;6.77;6.23;;;33.20;37.90;;;;;;5022166;28;20229;-50
2021/06/26 11:47:12;;;;;;;6.77;6.30;;;33.00;37.20;;;;;;5031509;28;20501;-51
2021/06/26 11:49:46;;;;;;;7.00;6.47;;;33.00;37.60;;;;;;5030962;28;20526;-48
2021/06/26 11:52:13;;;;;;;6.60;6.10;;;32.90;38.40;;;;;;5029253;28;20451;-47
2021/06/26 11:54:40;;;;;;;7.10;6.50;;;32.90;38.20;;;;;;5018840;28;20435;-47
2021/06/26 11:57:08;;;;;;;6.57;6.10;;;32.90;37.50;;;;;;5011319;28;20976;-51
2021/06/26 11:59:48;;;;;;;7.20;6.70;;;32.90;37.30;;;;;;5028989;28;20982;-48
2021/06/26 12:02:15;;;;;;;6.90;6.40;;;32.90;36.90;;;;;;5020319;28;20436;-49
2021/06/26 12:04:41;;;;;;;8.83;6.17;;;33.00;37.30;;;;;;5021573;28;20428;-48
2021/06/26 12:07:11;;;;;;;6.30;5.70;;;33.20;37.40;;;;;;5030224;28;20431;-51
2021/06/26 12:09:41;;;;;;;6.43;5.90;;;33.20;36.80;;;;;;5024934;28;20205;-53
2021/06/26 12:12:07;;;;;;;5.77;5.37;;;33.20;36.80;;;;;;5032130;28;20920;-51
2021/06/26 12:14:33;;;;;;;5.60;5.20;;;33.20;35.10;;;;;;5030531;28;20440;-50
2021/06/26 12:17:08;;;;;;;6.27;5.87;;;33.20;35.20;;;;;;5031097;28;20439;-53
2021/06/26 12:19:35;;;;;;;5.70;5.30;;;33.30;35.60;;;;;;5030274;28;20495;-51
2021/06/26 12:22:02;;;;;;;5.70;5.30;;;33.30;35.30;;;;;;5018391;28;20443;-51
2021/06/26 12:24:29;;;;;;;6.40;5.97;;;33.30;34.40;;;;;;5028139;28;21310;-51
2021/06/26 12:27:04;;;;;;;5.90;5.50;;;33.30;35.00;;;;;;5031728;28;20443;-51
2021/06/26 12:29:30;;;;;;;5.60;5.20;;;33.40;35.30;;;;;;5021127;28;20931;-47
2021/06/26 12:31:56;;;;;;;5.60;5.10;;;33.50;35.60;;;;;;5020997;28;20436;-48
2021/06/26 12:34:21;;;;;;;13.23;12.13;;;33.60;35.20;;;;;;5029173;28;20682;-51
2021/06/26 12:36:55;;;;;;;38.00;34.43;;;33.60;36.30;;;;;;5025851;28;20186;-51